createdAt,value
2019-05-01T00:01:18.316Z,83.93
2019-05-01T00:04:06.657Z,84.18
2019-05-01T00:06:42.806Z,83.80
2019-05-01T00:09:12.873Z,83.59
2019-05-01T00:11:41.678Z,83.59
2019-05-01T00:14:10.418Z,83.90
2019-05-01T00:16:39.252Z,83.75
2019-05-01T00:19:07.671Z,83.77
2019-05-01T00:21:36.069Z,84.04
2019-05-01T00:24:04.631Z,84.12
2019-05-01T00:26:33.029Z,84.02
2019-05-01T00:29:01.520Z,83.93
2019-05-01T00:31:29.949Z,84.31
2019-05-01T00:33:58.363Z,83.59
2019-05-01T00:36:26.855Z,84.51
2019-05-01T00:38:55.630Z,84.87
2019-05-01T00:41:24.022Z,84.64
2019-05-01T00:43:52.437Z,84.28
2019-05-01T00:46:20.913Z,84.67
2019-05-01T00:48:49.367Z,85.32
2019-05-01T00:51:21.188Z,85.41
2019-05-01T00:53:49.922Z,85.07
2019-05-01T00:56:20.050Z,85.11
2019-05-01T00:58:53.070Z,85.08
2019-05-01T01:01:30.620Z,85.17
2019-05-01T01:03:59.255Z,85.61
2019-05-01T01:06:27.735Z,85.76
2019-05-01T01:08:56.157Z,85.79
2019-05-01T01:11:24.594Z,85.03
2019-05-01T01:13:53.072Z,84.96
2019-05-01T01:16:21.474Z,85.67
2019-05-01T01:18:49.893Z,85.91
2019-05-01T01:21:18.311Z,86.29
2019-05-01T01:23:46.823Z,86.04
2019-05-01T01:26:15.392Z,86.27
2019-05-01T01:28:43.873Z,85.95
2019-05-01T01:31:12.359Z,85.71
2019-05-01T01:33:40.786Z,84.86
2019-05-01T01:36:09.193Z,85.25
2019-05-01T01:38:37.630Z,85.38
2019-05-01T01:41:06.175Z,86.74
2019-05-01T01:43:52.991Z,86.95
2019-05-01T01:46:31.975Z,86.19
2019-05-01T01:49:00.461Z,85.66
2019-05-01T01:51:29.566Z,85.32
2019-05-01T01:53:59.404Z,85.82
2019-05-01T01:56:27.963Z,85.40
2019-05-01T01:58:56.815Z,85.26
2019-05-01T02:01:26.920Z,85.86
2019-05-01T02:04:06.286Z,85.97
2019-05-01T02:06:34.817Z,84.46
2019-05-01T02:09:05.024Z,84.08
2019-05-01T02:11:33.571Z,85.10
2019-05-01T02:14:02.054Z,85.67
2019-05-01T02:16:30.534Z,84.58
2019-05-01T02:18:58.948Z,84.31
2019-05-01T02:21:27.389Z,85.23
2019-05-01T02:23:55.802Z,84.90
2019-05-01T02:26:26.306Z,85.53
2019-05-01T02:28:59.220Z,85.39
2019-05-01T02:31:32.743Z,84.97
2019-05-01T02:34:03.573Z,84.35
2019-05-01T02:36:34.287Z,84.36
2019-05-01T02:39:04.893Z,84.96
2019-05-01T02:41:36.652Z,84.73
2019-05-01T02:44:08.101Z,84.35
2019-05-01T02:46:37.470Z,84.19
2019-05-01T02:49:17.588Z,84.92
2019-05-01T02:51:46.776Z,85.43
2019-05-01T02:54:17.965Z,85.74
2019-05-01T02:56:52.202Z,85.94
2019-05-01T02:59:22.873Z,85.72
2019-05-01T03:01:51.417Z,86.35
2019-05-01T03:04:20.307Z,86.25
2019-05-01T03:06:49.877Z,85.88
2019-05-01T03:09:19.066Z,86.36
2019-05-01T03:11:50.646Z,86.22
2019-05-01T03:14:21.795Z,87.75
2019-05-01T03:16:52.917Z,88.38
2019-05-01T03:19:31.659Z,87.30
2019-05-01T03:22:20.768Z,88.33
2019-05-01T03:24:49.321Z,90.75
2019-05-01T03:27:17.988Z,91.08
2019-05-01T03:29:46.825Z,91.15
2019-05-01T03:32:19.090Z,90.90
2019-05-01T03:34:51.831Z,90.96
2019-05-01T03:37:16.272Z,90.94
2019-05-01T03:39:44.854Z,91.55
2019-05-01T03:42:13.520Z,92.37
2019-05-01T03:44:42.220Z,93.17
2019-05-01T03:47:10.761Z,93.47
2019-05-01T03:49:39.452Z,93.70
2019-05-01T03:52:08.223Z,93.59
2019-05-01T03:54:38.250Z,93.91
2019-05-01T03:57:06.663Z,93.91
2019-05-01T03:59:35.478Z,93.63
2019-05-01T04:02:33.084Z,93.63
2019-05-01T04:04:54.336Z,92.73
2019-05-01T04:07:22.981Z,92.54
2019-05-01T04:09:51.563Z,92.47
2019-05-01T04:12:20.169Z,92.15
2019-05-01T04:14:49.472Z,92.42
2019-05-01T04:17:22.954Z,92.40
2019-05-01T04:19:51.723Z,92.31
2019-05-01T04:22:20.280Z,92.19
2019-05-01T04:24:49.519Z,92.50
2019-05-01T04:27:19.862Z,92.61
2019-05-01T04:29:53.471Z,92.36
2019-05-01T04:32:23.589Z,92.42
2019-05-01T04:35:00.001Z,92.78
2019-05-01T04:37:29.086Z,92.78
2019-05-01T04:39:58.037Z,92.56
2019-05-01T04:42:26.688Z,92.35
2019-05-01T04:44:55.267Z,92.12
2019-05-01T04:47:24.660Z,92.48
2019-05-01T04:49:53.661Z,92.82
2019-05-01T04:52:22.177Z,93.11
2019-05-01T04:54:50.850Z,92.94
2019-05-01T04:57:19.493Z,93.01
2019-05-01T04:59:47.982Z,93.14
2019-05-01T05:02:18.602Z,93.19
2019-05-01T05:04:47.387Z,92.97
2019-05-01T05:07:16.030Z,92.71
2019-05-01T05:09:46.390Z,93.03
2019-05-01T05:12:20.467Z,93.16
2019-05-01T05:14:50.614Z,93.63
2019-05-01T05:17:20.862Z,94.22
2019-05-01T05:19:49.798Z,94.69
2019-05-01T05:22:18.521Z,94.39
2019-05-01T05:24:47.307Z,94.88
2019-05-01T05:27:20.708Z,94.98
2019-05-01T05:29:49.986Z,95.17
2019-05-01T05:32:20.911Z,94.86
2019-05-01T05:34:51.296Z,94.87
2019-05-01T05:44:14.324Z,95.23
2019-05-01T05:46:42.905Z,95.85
2019-05-01T05:49:11.641Z,95.73
2019-05-01T05:51:44.009Z,95.69
2019-05-01T05:54:32.434Z,96.37
2019-05-01T05:57:18.728Z,96.53
2019-05-01T05:59:57.100Z,96.18
2019-05-01T06:02:35.858Z,96.54
2019-05-01T06:05:15.971Z,96.56
2019-05-01T06:08:05.279Z,96.05
2019-05-01T06:10:40.254Z,95.85
2019-05-01T06:13:18.022Z,96.06
2019-05-01T06:15:49.233Z,96.18
2019-05-01T06:18:19.668Z,96.42
2019-05-01T06:20:56.967Z,96.18
2019-05-01T06:23:38.692Z,96.52
2019-05-01T06:26:14.348Z,96.46
2019-05-01T06:28:42.884Z,96.39
2019-05-01T06:31:17.788Z,96.21
2019-05-01T06:33:48.555Z,96.21
2019-05-01T06:36:16.611Z,96.60
2019-05-01T06:38:45.501Z,96.84
2019-05-01T06:41:16.222Z,97.07
2019-05-01T06:43:49.229Z,97.50
2019-05-01T06:46:31.911Z,97.13
2019-05-01T06:49:24.389Z,97.16
2019-05-01T06:51:53.196Z,97.14
2019-05-01T06:54:23.841Z,97.23
2019-05-01T06:56:52.683Z,97.29
2019-05-01T06:59:26.334Z,97.16
2019-05-01T07:01:58.252Z,97.34
2019-05-01T07:04:23.527Z,96.88
2019-05-01T07:06:52.632Z,96.49
2019-05-01T07:09:28.251Z,96.71
2019-05-01T07:11:54.508Z,96.68
2019-05-01T07:14:22.890Z,96.81
2019-05-01T07:16:51.494Z,96.69
2019-05-01T07:19:21.924Z,96.21
2019-05-01T07:21:50.569Z,96.25
2019-05-01T07:24:19.356Z,95.57
2019-05-01T07:26:49.154Z,94.87
2019-05-01T07:29:19.532Z,95.15
2019-05-01T07:31:48.144Z,94.88
2019-05-01T07:34:17.079Z,95.16
2019-05-01T07:36:50.124Z,95.51
2019-05-01T07:39:16.263Z,95.01
2019-05-01T07:41:44.808Z,94.93
2019-05-01T07:44:17.674Z,94.37
2019-05-01T07:47:04.645Z,94.28
2019-05-01T07:49:47.778Z,94.90
2019-05-01T07:52:17.175Z,95.28
2019-05-01T07:54:47.256Z,95.00
2019-05-01T07:57:16.781Z,95.36
2019-05-01T07:59:45.575Z,96.00
2019-05-01T08:02:14.422Z,95.64
2019-05-01T08:04:42.822Z,95.22
2019-05-01T08:07:11.257Z,94.93
2019-05-01T08:09:39.802Z,95.58
2019-05-01T08:12:08.372Z,95.04
2019-05-01T08:14:36.780Z,95.08
2019-05-01T08:17:05.293Z,94.50
2019-05-01T08:19:44.451Z,94.09
2019-05-01T08:22:14.542Z,93.86
2019-05-01T08:24:43.014Z,93.83
2019-05-01T08:27:15.644Z,92.83
2019-05-01T08:29:44.969Z,92.95
2019-05-01T08:32:33.764Z,93.53
2019-05-01T08:35:05.773Z,94.03
2019-05-01T08:37:34.183Z,94.36
2019-05-01T08:40:02.603Z,94.13
2019-05-01T08:42:31.041Z,93.98
2019-05-01T08:45:05.115Z,94.29
2019-05-01T08:47:33.081Z,93.97
2019-05-01T08:50:14.707Z,93.31
2019-05-01T08:52:47.482Z,93.36
2019-05-01T08:55:13.394Z,93.66
2019-05-01T08:57:41.855Z,93.49
2019-05-01T09:00:10.995Z,93.17
2019-05-01T09:02:41.608Z,93.48
2019-05-01T09:05:27.721Z,94.04
2019-05-01T09:07:40.377Z,94.14
2019-05-01T09:10:09.353Z,93.82
2019-05-01T09:12:37.809Z,94.02
2019-05-01T09:15:12.652Z,94.55
2019-05-01T09:17:37.919Z,94.33
2019-05-01T09:20:06.484Z,94.23
2019-05-01T09:22:34.920Z,94.37
2019-05-01T09:25:03.684Z,94.52
2019-05-01T09:27:49.952Z,94.22
2019-05-01T09:30:30.003Z,93.46
2019-05-01T09:32:58.508Z,93.30
2019-05-01T09:35:26.989Z,93.11
2019-05-01T09:37:55.502Z,92.90
2019-05-01T09:40:23.913Z,92.43
2019-05-01T09:42:54.812Z,93.28
2019-05-01T09:45:22.647Z,92.98
2019-05-01T09:47:51.057Z,92.60
2019-05-01T09:50:19.560Z,92.17
2019-05-01T09:53:06.094Z,92.93
2019-05-01T09:55:42.535Z,92.55
2019-05-01T09:58:10.933Z,92.35
2019-05-01T10:00:39.413Z,92.79
2019-05-01T10:03:07.853Z,92.07
2019-05-01T10:05:38.121Z,91.90
2019-05-01T10:08:06.453Z,92.22
2019-05-01T10:10:37.046Z,92.18
2019-05-01T10:13:05.326Z,90.90
2019-05-01T10:15:33.807Z,90.74
2019-05-01T10:18:02.357Z,91.00
2019-05-01T10:20:30.831Z,91.15
2019-05-01T10:23:00.771Z,90.99
2019-05-01T10:25:29.253Z,90.92
2019-05-01T10:27:59.305Z,90.87
2019-05-01T10:30:31.711Z,91.23
2019-05-01T10:33:06.957Z,90.50
2019-05-01T10:35:42.752Z,90.77
2019-05-01T10:38:09.510Z,90.64
2019-05-01T10:40:37.576Z,90.21
2019-05-01T10:43:06.233Z,89.29
2019-05-01T10:45:34.775Z,90.12
2019-05-01T10:48:03.281Z,89.65
2019-05-01T10:50:31.787Z,89.35
2019-05-01T10:53:00.201Z,89.55
2019-05-01T10:55:28.686Z,89.17
2019-05-01T10:57:57.140Z,88.94
2019-05-01T11:00:25.686Z,89.11
2019-05-01T11:02:54.120Z,89.23
2019-05-01T11:05:22.753Z,89.50
2019-05-01T11:07:51.468Z,88.55
2019-05-01T11:10:20.857Z,88.86
2019-05-01T11:12:49.340Z,87.34
2019-05-01T11:15:19.436Z,87.44
2019-05-01T11:17:47.856Z,87.83
2019-05-01T11:20:16.373Z,88.20
2019-05-01T11:22:44.859Z,88.47
2019-05-01T11:25:14.983Z,87.78
2019-05-01T11:27:43.433Z,87.49
2019-05-01T11:30:12.159Z,87.44
2019-05-01T11:32:57.719Z,88.05
2019-05-01T11:35:33.502Z,87.67
2019-05-01T11:38:03.613Z,87.78
2019-05-01T11:40:33.703Z,88.67
2019-05-01T11:43:02.794Z,87.83
2019-05-01T11:45:31.496Z,87.58
2019-05-01T11:47:59.877Z,87.60
2019-05-01T11:50:28.308Z,86.53
2019-05-01T11:52:56.719Z,87.35
2019-05-01T11:55:25.174Z,86.23
2019-05-01T11:57:53.695Z,86.21
2019-05-01T12:00:22.474Z,86.83
2019-05-01T12:02:50.976Z,85.59
2019-05-01T12:05:19.392Z,86.52
2019-05-01T12:07:47.940Z,85.97
2019-05-01T12:10:16.532Z,86.08
2019-05-01T12:12:44.976Z,85.56
2019-05-01T12:15:15.123Z,84.40
2019-05-01T12:17:48.089Z,85.56
2019-05-01T12:20:17.055Z,85.05
2019-05-01T12:22:47.955Z,84.58
2019-05-01T12:25:15.845Z,84.63
2019-05-01T12:27:44.291Z,84.89
2019-05-01T12:30:14.124Z,84.63
2019-05-01T12:32:42.579Z,84.72
2019-05-01T12:35:11.194Z,85.12
2019-05-01T12:37:42.285Z,84.15
2019-05-01T12:40:13.229Z,84.62
2019-05-01T12:42:41.769Z,85.32
2019-05-01T12:45:11.446Z,84.31
2019-05-01T12:47:48.289Z,84.30
2019-05-01T12:50:17.445Z,84.71
2019-05-01T12:52:47.562Z,84.80
2019-05-01T12:55:18.105Z,84.93
2019-05-01T12:57:46.536Z,84.87
2019-05-01T13:00:16.860Z,84.14
2019-05-01T13:02:45.294Z,84.36
2019-05-01T13:05:13.939Z,84.45
2019-05-01T13:07:42.452Z,84.81
2019-05-01T13:10:11.827Z,84.35
2019-05-01T13:12:40.444Z,84.36
2019-05-01T13:15:09.186Z,84.15
2019-05-01T13:17:37.672Z,82.76
2019-05-01T13:20:07.337Z,84.06
2019-05-01T13:22:35.758Z,83.43
2019-05-01T13:25:06.261Z,83.15
2019-05-01T13:27:36.327Z,83.47
2019-05-01T13:30:18.730Z,83.07
2019-05-01T13:32:48.793Z,83.72
2019-05-01T13:35:17.340Z,82.31
2019-05-01T13:37:45.863Z,82.36
2019-05-01T13:40:16.075Z,82.73
2019-05-01T13:42:44.638Z,82.49
2019-05-01T13:45:14.810Z,81.12
2019-05-01T13:47:43.275Z,81.11
2019-05-01T13:50:12.256Z,81.23
2019-05-01T13:52:40.803Z,81.93
2019-05-01T13:55:09.887Z,81.47
2019-05-01T13:57:38.307Z,81.58
2019-05-01T14:00:07.875Z,79.35
2019-05-01T14:02:36.356Z,79.77
2019-05-01T14:05:05.959Z,79.36
2019-05-01T14:07:34.463Z,79.96
2019-05-01T14:10:02.900Z,79.24
2019-05-01T14:12:31.324Z,78.87
2019-05-01T14:14:59.743Z,76.64
2019-05-01T14:17:28.192Z,73.67
2019-05-01T14:20:00.809Z,73.18
2019-05-01T14:22:33.937Z,72.85
2019-05-01T14:25:04.103Z,71.83
2019-05-01T14:27:32.552Z,72.19
2019-05-01T14:30:00.983Z,72.93
2019-05-01T14:32:29.419Z,70.87
2019-05-01T14:34:57.851Z,72.58
2019-05-01T14:37:29.915Z,72.39
2019-05-01T14:39:56.475Z,71.29
2019-05-01T14:42:24.880Z,69.45
2019-05-01T14:44:53.381Z,70.52
2019-05-01T14:47:21.812Z,70.85
2019-05-01T14:49:50.292Z,69.79
2019-05-01T14:52:18.726Z,70.18
2019-05-01T14:54:47.214Z,71.71
2019-05-01T14:57:15.622Z,70.20
2019-05-01T14:59:44.070Z,70.71
2019-05-01T15:02:12.676Z,70.65
2019-05-01T15:04:41.075Z,70.94
2019-05-01T15:07:11.224Z,70.62
2019-05-01T15:09:39.764Z,70.53
2019-05-01T15:12:09.615Z,70.25
2019-05-01T15:14:39.678Z,70.10
2019-05-01T15:17:09.767Z,70.49
2019-05-01T15:19:39.843Z,70.42
2019-05-01T15:22:08.253Z,70.53
2019-05-01T15:24:37.074Z,71.54
2019-05-01T15:27:05.545Z,70.20
2019-05-01T15:29:33.972Z,71.50
2019-05-01T15:32:02.407Z,71.11
2019-05-01T15:34:30.822Z,70.97
2019-05-01T15:36:59.245Z,70.12
2019-05-01T15:39:29.348Z,70.51
2019-05-01T15:41:59.460Z,70.26
2019-05-01T15:44:32.914Z,70.79
2019-05-01T15:47:01.338Z,72.05
2019-05-01T15:49:29.769Z,70.60
2019-05-01T15:51:58.187Z,68.54
2019-05-01T15:54:26.619Z,69.83
2019-05-01T15:56:55.137Z,68.79
2019-05-01T15:59:23.610Z,69.29
2019-05-01T16:01:52.084Z,69.11
2019-05-01T16:04:20.503Z,68.38
2019-05-01T16:06:48.968Z,67.28
2019-05-01T16:09:17.464Z,67.33
2019-05-01T16:12:03.705Z,67.30
2019-05-01T16:14:32.257Z,66.74
2019-05-01T16:17:00.734Z,68.11
2019-05-01T16:19:29.186Z,69.58
2019-05-01T16:21:57.638Z,67.32
2019-05-01T16:24:26.064Z,67.47
2019-05-01T16:26:54.491Z,67.36
2019-05-01T16:29:22.979Z,68.08
2019-05-01T16:31:51.480Z,67.15
2019-05-01T16:34:19.914Z,68.53
2019-05-01T16:36:48.401Z,66.98
2019-05-01T16:39:24.639Z,67.72
2019-05-01T16:41:53.183Z,68.06
2019-05-01T16:44:21.626Z,68.63
2019-05-01T16:46:50.058Z,68.41
2019-05-01T16:49:18.542Z,67.90
2019-05-01T16:51:47.227Z,67.55
2019-05-01T16:54:15.627Z,67.63
2019-05-01T16:56:44.108Z,67.24
2019-05-01T16:59:12.547Z,66.87
2019-05-01T17:01:48.598Z,67.35
2019-05-01T17:04:18.747Z,66.23
2019-05-01T17:07:05.040Z,66.05
2019-05-01T17:09:52.838Z,66.36
2019-05-01T17:12:22.967Z,67.11
2019-05-01T17:14:51.374Z,67.31
2019-05-01T17:17:24.682Z,66.78
2019-05-01T17:19:53.133Z,67.10
2019-05-01T17:22:21.628Z,68.59
2019-05-01T17:24:50.140Z,67.56
2019-05-01T17:27:18.572Z,67.55
2019-05-01T17:29:46.982Z,67.26
2019-05-01T17:32:16.975Z,67.87
2019-05-01T17:34:45.489Z,68.85
2019-05-01T17:37:13.921Z,68.95
2019-05-01T17:39:42.605Z,68.30
2019-05-01T17:42:11.046Z,69.90
2019-05-01T17:44:39.675Z,70.22
2019-05-01T17:47:08.184Z,69.05
2019-05-01T17:49:41.054Z,69.31
2019-05-01T17:52:06.903Z,70.74
2019-05-01T17:54:35.363Z,69.77
2019-05-01T17:57:03.870Z,70.53
2019-05-01T17:59:32.299Z,70.04
2019-05-01T18:02:10.066Z,71.08
2019-05-01T18:04:55.744Z,70.14
2019-05-01T18:07:28.742Z,71.07
2019-05-01T18:09:55.704Z,72.33
2019-05-01T18:12:28.578Z,73.57
2019-05-01T18:14:55.438Z,74.20
2019-05-01T18:17:24.113Z,74.54
2019-05-01T18:19:52.578Z,75.28
2019-05-01T18:22:38.989Z,75.42
2019-05-01T18:25:23.587Z,75.11
2019-05-01T18:27:59.228Z,75.42
2019-05-01T18:30:29.390Z,76.26
2019-05-01T18:32:57.815Z,77.20
2019-05-01T18:35:26.236Z,77.71
2019-05-01T18:38:06.341Z,77.82
2019-05-01T18:40:34.078Z,77.55
2019-05-01T18:43:02.727Z,77.76
2019-05-01T18:45:34.320Z,78.76
2019-05-01T18:48:02.767Z,78.82
2019-05-01T18:50:31.189Z,78.77
2019-05-01T18:52:59.614Z,79.04
2019-05-01T18:55:30.383Z,79.69
2019-05-01T18:57:58.290Z,80.05
2019-05-01T19:00:26.801Z,79.53
2019-05-01T19:02:55.207Z,80.26
2019-05-01T19:05:23.741Z,79.94
2019-05-01T19:07:52.399Z,80.50
2019-05-01T19:10:20.962Z,80.57
2019-05-01T19:12:49.457Z,81.06
2019-05-01T19:15:18.024Z,81.49
2019-05-01T19:17:46.622Z,81.50
2019-05-01T19:20:15.442Z,81.48
2019-05-01T19:22:43.938Z,82.00
2019-05-01T19:25:16.047Z,81.28
2019-05-01T19:27:42.895Z,81.89
2019-05-01T19:30:14.958Z,82.20
2019-05-01T19:32:42.350Z,81.63
2019-05-01T19:35:11.034Z,82.01
2019-05-01T19:37:39.571Z,82.18
2019-05-01T19:40:09.038Z,82.24
2019-05-01T19:42:40.029Z,82.00
2019-05-01T19:45:07.961Z,81.90
2019-05-01T19:47:36.408Z,81.91
2019-05-01T19:50:09.499Z,81.98
2019-05-01T19:52:39.869Z,81.99
2019-05-01T19:55:08.648Z,82.16
2019-05-01T19:57:37.241Z,82.23
2019-05-01T20:00:08.245Z,82.55
2019-05-01T20:02:38.391Z,82.29
2019-05-01T20:05:11.054Z,82.24
2019-05-01T20:07:38.838Z,82.74
2019-05-01T20:10:08.047Z,83.15
2019-05-01T20:12:36.493Z,83.52
2019-05-01T20:15:06.761Z,83.16
2019-05-01T20:17:35.663Z,83.47
2019-05-01T20:20:06.437Z,83.14
2019-05-01T20:22:34.930Z,83.18
2019-05-01T20:25:03.491Z,82.66
2019-05-01T20:27:31.921Z,83.01
2019-05-01T20:30:00.343Z,82.63
2019-05-01T20:32:28.869Z,82.68
2019-05-01T20:34:59.343Z,83.37
2019-05-01T20:37:27.449Z,83.29
2019-05-01T20:39:55.951Z,83.06
2019-05-01T20:42:24.399Z,82.42
2019-05-01T20:45:03.965Z,82.55
2019-05-01T20:47:34.448Z,82.88
2019-05-01T20:49:53.385Z,83.03
2019-05-01T20:52:21.868Z,82.35
2019-05-01T20:54:50.341Z,83.36
2019-05-01T20:57:26.442Z,83.34
2019-05-01T20:59:54.892Z,83.32
2019-05-01T21:02:23.438Z,82.98
2019-05-01T21:04:53.551Z,83.13
2019-05-01T21:07:23.615Z,84.19
2019-05-01T21:09:57.883Z,85.87
2019-05-01T21:12:23.971Z,85.18
2019-05-01T21:14:52.377Z,84.50
2019-05-01T21:17:20.799Z,83.98
2019-05-01T21:19:49.242Z,83.15
2019-05-01T21:22:17.735Z,83.81
2019-05-01T21:24:46.164Z,84.05
2019-05-01T21:27:14.560Z,84.18
2019-05-01T21:29:44.538Z,84.13
2019-05-01T21:32:13.604Z,83.95
2019-05-01T21:34:43.547Z,83.40
2019-05-01T21:37:12.132Z,83.06
2019-05-01T21:39:40.550Z,83.70
2019-05-01T21:42:11.627Z,83.73
2019-05-01T21:44:39.163Z,83.64
2019-05-01T21:47:07.573Z,83.93
2019-05-01T21:49:36.010Z,83.45
2019-05-01T21:52:07.298Z,83.90
2019-05-01T21:54:35.066Z,83.67
2019-05-01T21:57:03.630Z,84.35
2019-05-01T21:59:32.097Z,84.80
2019-05-01T22:02:00.645Z,83.95
2019-05-01T22:04:31.928Z,83.82
2019-05-01T22:06:59.320Z,83.87
2019-05-01T22:09:27.888Z,84.71
2019-05-01T22:11:56.480Z,84.00
2019-05-01T22:14:31.195Z,84.03
2019-05-01T22:17:00.478Z,84.44
2019-05-01T22:19:29.661Z,83.68
2019-05-01T22:22:05.634Z,83.82
2019-05-01T22:24:47.494Z,83.73
2019-05-01T22:27:23.570Z,83.93
2019-05-01T22:29:53.664Z,84.60
2019-05-01T22:32:23.732Z,83.99
2019-05-01T22:34:53.903Z,83.39
2019-05-01T22:37:22.465Z,83.28
2019-05-01T22:39:55.691Z,83.49
2019-05-01T22:42:24.106Z,83.56
2019-05-01T22:44:52.611Z,83.73
2019-05-01T22:47:21.049Z,83.72
2019-05-01T22:49:49.581Z,83.92
2019-05-01T22:52:18.029Z,84.01
2019-05-01T22:54:48.884Z,84.25
2019-05-01T22:57:18.346Z,83.99
2019-05-01T22:59:47.159Z,84.50
2019-05-01T23:02:17.420Z,84.62
2019-05-01T23:04:48.335Z,84.44
2019-05-01T23:07:16.845Z,84.19
2019-05-01T23:09:46.388Z,83.94
2019-05-01T23:12:14.892Z,84.10
2019-05-01T23:14:44.538Z,84.57
2019-05-01T23:17:14.860Z,84.56
2019-05-01T23:19:43.355Z,84.18
2019-05-01T23:22:11.798Z,84.20
2019-05-01T23:24:40.258Z,83.99
2019-05-01T23:27:08.847Z,83.45
2019-05-01T23:29:37.441Z,83.68
2019-05-01T23:32:06.483Z,83.78
2019-05-01T23:34:35.621Z,83.95
2019-05-01T23:37:04.247Z,84.07
2019-05-01T23:39:39.743Z,83.49
2019-05-01T23:42:02.926Z,83.87
2019-05-01T23:44:31.342Z,84.19
2019-05-01T23:46:59.864Z,84.39
2019-05-01T23:49:28.322Z,84.60
2019-05-01T23:51:58.533Z,84.77
2019-05-01T23:54:27.013Z,84.29
2019-05-01T23:56:55.432Z,83.99
2019-05-01T23:59:23.860Z,84.46
